Airfield :
LOGIN :

Register | Disclaimer

   EN    FR    IT 

 










Legend :    VFR   Marginal VFR   IFR   Intensive IFR   Very Intensive IFR
Visi :
Ceiling :
>= 8 km
>= 3000ft
5 to 8 km
1000 to 3000 ft
1500m to 5 km
500 to 1000 ft
800 to 1500m
200 to 500 ft
< 800m
< 200 ft
Symbols :   Thunderstorms  Fog  Heavy snow  Heavy precipitations  Wind > 20 kt
SIGMETs :     Misc.  Thunderstorms  Icing  Turbulence  Mountain Waves  Volcanic Ashes






- Airport Elevation : 55 ft
- IATA code : DSA


EGCN - Robin Hood Doncaster Sheffield

CURRENT METAR :
  • 101620Z 28007KT 9999 FEW032 SCT045 15/11 Q1020

EXPIRED METARs :
  • 101550Z 31008KT 9999 FEW035 SCT043 15/10 Q1020
  • 101520Z 31006KT 280V340 9999 FEW032 SCT038 BKN046 14/12 Q1019 RERA
  • 101450Z 34014KT 9000 RA FEW027 BKN038 12/10 Q1019
  • 101420Z 29009KT 9999 VCSH SCT039 18/09 Q1018
  • 101350Z 29009KT 250V330 9999 FEW032 SCT042CB 18/08 Q1018

TAF TAF EGCN
Valid from the 10 at 12:00 until the 11 at 12:00 UTC


101101Z 1012/1112 29009KT 9999 SCT030
TEMPO 1012/1020 7000 SHRA
PROB30
TEMPO 1012/1019 4000 +SHRA BKN014CB



MET'MAP, your aeronautical weather chart ! - Copyright ORBIFLY December 2007 - Disclaimer

ORBIFLY MET'MAP TEAM :

Programming & Development : Alexandra Zaïnal
Concept & original design : Baudouin d'Aumeries
Assistance for programming : Marc-Olivier Méhu
Technical & hardware support : Manuel Goepfert

Contact : metmap@orbifly.com




SOURCES & CREDITS :

   NOAA